createdAt,value
2022-11-20T00:01:35.556Z,36.30
2022-11-20T00:04:04.048Z,37.57
2022-11-20T00:06:32.438Z,39.37
2022-11-20T00:09:02.834Z,37.07
2022-11-20T00:11:32.996Z,39.27
2022-11-20T00:14:02.957Z,41.07
2022-11-20T00:16:33.905Z,37.67
2022-11-20T00:19:02.636Z,37.23
2022-11-20T00:21:31.930Z,38.53
2022-11-20T00:24:01.539Z,39.03
2022-11-20T00:26:31.289Z,38.17
2022-11-20T00:29:01.227Z,37.90
2022-11-20T00:31:30.291Z,38.33
2022-11-20T00:33:59.468Z,38.57
2022-11-20T00:36:29.679Z,38.67
2022-11-20T00:38:59.561Z,38.03
2022-11-20T00:41:30.696Z,37.77
2022-11-20T00:43:59.029Z,36.60
2022-11-20T00:46:29.141Z,38.80
2022-11-20T00:48:57.722Z,40.67
2022-11-20T00:51:27.630Z,37.50
2022-11-20T00:53:58.038Z,37.07
2022-11-20T00:56:26.409Z,37.13
2022-11-20T00:58:56.322Z,37.87
2022-11-20T01:01:27.321Z,37.70
2022-11-20T01:03:57.850Z,36.47
2022-11-20T01:06:28.234Z,37.17
2022-11-20T01:08:58.249Z,35.73
2022-11-20T01:11:28.630Z,35.90
2022-11-20T01:13:59.350Z,35.97
2022-11-20T01:16:30.224Z,33.87
2022-11-20T01:19:00.854Z,31.77
2022-11-20T01:21:31.113Z,32.70
2022-11-20T01:24:00.408Z,35.17
2022-11-20T01:26:30.518Z,34.10
2022-11-20T01:29:01.489Z,33.73
2022-11-20T01:31:31.967Z,33.50
2022-11-20T01:34:02.266Z,34.13
2022-11-20T01:36:32.584Z,35.23
2022-11-20T01:39:02.444Z,33.53
2022-11-20T01:41:49.509Z,34.27
2022-11-20T01:44:21.579Z,33.60
2022-11-20T01:46:57.845Z,33.27
2022-11-20T01:49:29.016Z,34.23
2022-11-20T01:52:01.788Z,32.10
2022-11-20T01:54:34.047Z,33.10
2022-11-20T01:57:03.747Z,32.47
2022-11-20T01:59:33.677Z,33.03
2022-11-20T02:02:02.130Z,33.83
2022-11-20T02:04:30.524Z,33.80
2022-11-20T02:07:02.340Z,35.30
2022-11-20T02:09:31.096Z,35.93
2022-11-20T02:12:01.000Z,36.60
2022-11-20T02:14:29.029Z,31.83
2022-11-20T02:16:58.675Z,32.60
2022-11-20T02:19:30.177Z,33.57
2022-11-20T02:22:07.650Z,32.00
2022-11-20T02:24:37.326Z,33.90
2022-11-20T02:27:09.686Z,33.93
2022-11-20T02:29:41.475Z,33.80
2022-11-20T02:32:20.678Z,32.90
2022-11-20T02:34:49.075Z,32.13
2022-11-20T02:37:18.796Z,31.03
2022-11-20T02:39:50.697Z,30.77
2022-11-20T02:42:19.069Z,28.60
2022-11-20T02:44:47.317Z,29.97
2022-11-20T02:47:15.740Z,29.80
2022-11-20T02:49:44.001Z,31.83
2022-11-20T02:52:12.325Z,29.97
2022-11-20T02:54:40.587Z,29.10
2022-11-20T02:57:10.210Z,29.17
2022-11-20T02:59:38.578Z,30.63
2022-11-20T03:02:07.098Z,30.87
2022-11-20T03:04:35.489Z,33.10
2022-11-20T03:07:03.922Z,29.10
2022-11-20T03:09:32.235Z,27.80
2022-11-20T03:12:00.610Z,29.27
2022-11-20T03:14:30.205Z,31.83
2022-11-20T03:16:58.733Z,29.13
2022-11-20T03:19:27.077Z,29.60
2022-11-20T03:21:55.287Z,29.13
2022-11-20T03:24:23.607Z,27.90
2022-11-20T03:26:51.861Z,29.93
2022-11-20T03:29:20.630Z,30.90
2022-11-20T03:31:50.484Z,29.30
2022-11-20T03:34:18.800Z,29.30
2022-11-20T03:36:47.838Z,28.13
2022-11-20T03:39:16.035Z,31.80
2022-11-20T03:41:44.531Z,29.43
2022-11-20T03:44:13.627Z,28.90
2022-11-20T03:46:41.926Z,28.87
2022-11-20T03:49:11.535Z,27.33
2022-11-20T03:51:39.815Z,26.93
2022-11-20T03:54:10.328Z,28.10
2022-11-20T03:56:40.351Z,29.87
2022-11-20T03:59:09.169Z,30.00
2022-11-20T04:01:38.995Z,28.23
2022-11-20T04:04:08.095Z,26.90
2022-11-20T04:06:39.756Z,27.53
2022-11-20T04:09:08.599Z,26.37
2022-11-20T04:11:41.558Z,27.17
2022-11-20T04:14:16.647Z,29.60
2022-11-20T04:16:45.368Z,27.17
2022-11-20T04:19:15.564Z,31.87
2022-11-20T04:21:46.131Z,30.33
2022-11-20T04:24:14.572Z,30.97
2022-11-20T04:26:43.092Z,28.47
2022-11-20T04:29:13.706Z,27.30
2022-11-20T04:31:42.056Z,29.50
2022-11-20T04:34:13.660Z,25.57
2022-11-20T04:36:42.076Z,27.33
2022-11-20T04:39:17.942Z,24.87
2022-11-20T04:41:46.558Z,26.93
2022-11-20T04:44:14.880Z,26.00
2022-11-20T04:46:44.397Z,26.33
2022-11-20T04:49:13.462Z,28.53
2022-11-20T04:51:41.863Z,25.53
2022-11-20T04:54:11.269Z,24.63
2022-11-20T04:56:40.927Z,25.17
2022-11-20T04:59:09.267Z,24.47
2022-11-20T05:01:37.728Z,23.10
2022-11-20T05:04:06.699Z,24.23
2022-11-20T05:06:35.150Z,25.77
2022-11-20T05:09:03.469Z,23.50
2022-11-20T05:11:31.738Z,26.47
2022-11-20T05:14:02.579Z,29.67
2022-11-20T05:16:31.178Z,28.00
2022-11-20T05:18:59.548Z,27.80
2022-11-20T05:21:28.568Z,37.47
2022-11-20T05:23:56.897Z,31.27
2022-11-20T05:26:25.355Z,32.10
2022-11-20T05:28:54.099Z,32.27
2022-11-20T05:31:28.229Z,33.47
2022-11-20T05:33:58.214Z,31.43
2022-11-20T05:36:27.047Z,36.37
2022-11-20T05:39:01.048Z,33.40
2022-11-20T05:41:30.314Z,30.33
2022-11-20T05:43:59.871Z,29.83
2022-11-20T05:46:29.871Z,31.37
2022-11-20T05:48:59.327Z,29.20
2022-11-20T05:51:28.361Z,29.17
2022-11-20T05:53:59.511Z,31.37
2022-11-20T05:56:27.800Z,30.97
2022-11-20T05:58:56.130Z,30.43
2022-11-20T06:01:26.459Z,31.10
2022-11-20T06:03:57.095Z,30.93
2022-11-20T06:06:26.268Z,29.57
2022-11-20T06:08:54.633Z,28.13
2022-11-20T06:11:23.270Z,27.20
2022-11-20T06:13:51.750Z,25.93
2022-11-20T06:16:22.815Z,29.77
2022-11-20T06:18:51.464Z,28.70
2022-11-20T06:21:23.273Z,29.23
2022-11-20T06:23:52.918Z,26.33
2022-11-20T06:26:23.103Z,29.20
2022-11-20T06:28:52.057Z,24.80
2022-11-20T06:31:22.208Z,24.40
2022-11-20T06:33:51.229Z,24.53
2022-11-20T06:36:22.777Z,26.10
2022-11-20T06:38:51.804Z,29.27
2022-11-20T06:41:22.266Z,27.13
2022-11-20T06:43:50.965Z,28.47
2022-11-20T06:46:20.908Z,25.40
2022-11-20T06:48:50.019Z,26.97
2022-11-20T06:51:18.718Z,26.53
2022-11-20T06:53:48.372Z,28.07
2022-11-20T06:56:16.889Z,28.40
2022-11-20T06:58:45.295Z,26.93
2022-11-20T07:01:15.540Z,31.40
2022-11-20T07:03:44.209Z,29.90
2022-11-20T07:06:12.951Z,28.87
2022-11-20T07:08:41.293Z,28.23
2022-11-20T07:11:14.944Z,27.00
2022-11-20T07:13:43.341Z,25.63
2022-11-20T07:16:11.741Z,27.37
2022-11-20T07:18:40.187Z,24.93
2022-11-20T07:21:10.556Z,26.13
2022-11-20T07:23:39.551Z,26.33
2022-11-20T07:26:09.364Z,26.93
2022-11-20T07:28:39.339Z,24.23
2022-11-20T07:31:08.632Z,25.73
2022-11-20T07:33:37.127Z,24.83
2022-11-20T07:36:05.929Z,24.50
2022-11-20T07:38:34.216Z,24.40
2022-11-20T07:41:02.859Z,23.77
2022-11-20T07:43:31.495Z,24.03
2022-11-20T07:46:02.197Z,22.77
2022-11-20T07:48:30.455Z,23.97
2022-11-20T07:50:59.138Z,23.03
2022-11-20T07:53:27.529Z,22.30
2022-11-20T07:55:55.867Z,22.73
2022-11-20T07:58:24.212Z,26.57
2022-11-20T08:00:52.520Z,26.37
2022-11-20T08:03:25.089Z,25.23
2022-11-20T08:05:53.935Z,26.07
2022-11-20T08:08:22.706Z,26.33
2022-11-20T08:10:51.002Z,25.83
2022-11-20T08:13:36.897Z,27.27
2022-11-20T08:16:05.467Z,24.87
2022-11-20T08:18:35.116Z,26.03
2022-11-20T08:21:05.820Z,26.33
2022-11-20T08:23:34.141Z,24.83
2022-11-20T08:26:02.452Z,24.70
2022-11-20T08:28:30.766Z,24.40
2022-11-20T08:31:01.612Z,24.73
2022-11-20T08:33:30.772Z,25.40
2022-11-20T08:36:03.046Z,23.90
2022-11-20T08:38:32.056Z,24.17
2022-11-20T08:41:18.657Z,22.63
2022-11-20T08:43:46.981Z,23.63
2022-11-20T08:46:15.288Z,24.17
2022-11-20T08:48:44.254Z,24.30
2022-11-20T08:51:14.510Z,23.00
2022-11-20T08:53:43.854Z,21.10
2022-11-20T08:56:12.256Z,22.87
2022-11-20T08:59:09.856Z,22.37
2022-11-20T09:01:30.340Z,20.73
2022-11-20T09:03:58.920Z,21.50
2022-11-20T09:06:28.725Z,20.90
2022-11-20T09:09:02.059Z,23.53
2022-11-20T09:11:33.417Z,22.67
2022-11-20T09:14:03.980Z,22.63
2022-11-20T09:16:32.267Z,23.97
2022-11-20T09:19:40.647Z,23.93
2022-11-20T09:21:50.507Z,22.77
2022-11-20T09:24:18.976Z,23.67
2022-11-20T09:26:47.435Z,23.03
2022-11-20T09:29:15.857Z,23.40
2022-11-20T09:31:44.230Z,24.27
2022-11-20T09:34:12.628Z,24.37
2022-11-20T09:36:40.928Z,23.50
2022-11-20T09:39:10.530Z,26.00
2022-11-20T09:42:20.782Z,25.27
2022-11-20T09:45:02.006Z,24.47
2022-11-20T09:47:45.727Z,24.20
2022-11-20T09:50:25.977Z,23.80
2022-11-20T09:53:12.895Z,24.30
2022-11-20T09:55:42.607Z,24.43
2022-11-20T09:58:23.499Z,21.73
2022-11-20T10:00:53.539Z,24.10
2022-11-20T10:03:28.843Z,23.30
2022-11-20T10:05:58.740Z,23.30
2022-11-20T10:08:31.577Z,24.80
2022-11-20T10:11:08.970Z,24.27
2022-11-20T10:13:47.400Z,24.60
2022-11-20T10:16:28.118Z,23.10
2022-11-20T10:19:12.950Z,23.17
2022-11-20T10:21:53.445Z,24.90
2022-11-20T10:24:44.787Z,25.43
2022-11-20T10:27:39.525Z,22.40
2022-11-20T10:30:12.859Z,22.67
2022-11-20T10:32:43.447Z,22.97
2022-11-20T10:35:24.046Z,22.83
2022-11-20T10:37:58.498Z,23.40
2022-11-20T10:40:34.803Z,24.33
2022-11-20T10:43:13.394Z,24.63
2022-11-20T10:45:59.115Z,23.37
2022-11-20T10:48:29.346Z,24.83
2022-11-20T10:51:20.674Z,23.83
2022-11-20T10:54:06.419Z,23.30
2022-11-20T10:56:43.261Z,24.53
2022-11-20T10:59:53.736Z,24.77
2022-11-20T11:02:24.859Z,24.77
2022-11-20T11:04:54.346Z,25.77
2022-11-20T11:07:26.836Z,23.97
2022-11-20T11:09:57.040Z,24.40
2022-11-20T11:12:27.880Z,25.93
2022-11-20T11:14:59.623Z,26.07
2022-11-20T11:17:31.211Z,26.67
2022-11-20T11:20:08.408Z,27.00
2022-11-20T11:22:47.098Z,25.47
2022-11-20T11:25:28.535Z,27.10
2022-11-20T11:27:58.448Z,25.23
2022-11-20T11:30:31.049Z,27.40
2022-11-20T11:33:07.645Z,25.67
2022-11-20T11:35:49.743Z,26.77
2022-11-20T11:38:29.207Z,23.67
2022-11-20T11:40:58.547Z,23.83
2022-11-20T11:43:46.070Z,23.17
2022-11-20T11:46:32.025Z,23.93
2022-11-20T11:49:01.732Z,24.07
2022-11-20T11:51:36.828Z,23.23
2022-11-20T11:54:25.176Z,25.57
2022-11-20T11:56:55.063Z,23.73
2022-11-20T11:59:29.357Z,23.87
2022-11-20T12:02:01.813Z,25.90
2022-11-20T12:04:44.207Z,24.60
2022-11-20T12:07:44.945Z,24.50
2022-11-20T12:10:15.147Z,25.40
2022-11-20T12:12:46.298Z,27.13
2022-11-20T12:15:30.859Z,25.87
2022-11-20T12:18:00.671Z,23.57
2022-11-20T12:20:33.635Z,23.17
2022-11-20T12:23:11.110Z,24.97
2022-11-20T12:25:41.499Z,24.30
2022-11-20T12:28:37.950Z,22.80
2022-11-20T12:31:28.773Z,22.20
2022-11-20T12:34:08.551Z,23.10
2022-11-20T12:36:43.209Z,22.77
2022-11-20T12:39:43.000Z,22.43
2022-11-20T12:42:44.571Z,23.27
2022-11-20T12:45:53.875Z,23.63
2022-11-20T12:48:43.508Z,22.70
2022-11-20T12:51:27.577Z,23.57
2022-11-20T12:54:10.786Z,22.43
2022-11-20T12:56:45.575Z,23.00
2022-11-20T12:59:32.007Z,22.27
2022-11-20T13:02:11.614Z,28.43
2022-11-20T13:05:02.218Z,23.67
2022-11-20T13:07:34.305Z,22.50
2022-11-20T13:10:04.880Z,24.10
2022-11-20T13:12:42.487Z,22.87
2022-11-20T13:15:24.293Z,24.30
2022-11-20T13:17:57.853Z,23.53
2022-11-20T13:20:26.845Z,24.00
2022-11-20T13:22:58.224Z,23.30
2022-11-20T13:25:28.765Z,23.37
2022-11-20T13:27:58.951Z,22.40
2022-11-20T13:30:28.336Z,22.33
2022-11-20T13:32:58.417Z,22.80
2022-11-20T13:35:30.147Z,21.83
2022-11-20T13:38:09.197Z,22.57
2022-11-20T13:40:40.776Z,21.80
2022-11-20T13:43:23.796Z,23.33
2022-11-20T13:46:02.079Z,24.17
2022-11-20T13:48:34.481Z,24.50
2022-11-20T13:51:18.099Z,23.80
2022-11-20T13:54:07.213Z,23.93
2022-11-20T13:56:49.765Z,22.47
2022-11-20T13:59:36.906Z,23.97
2022-11-20T14:02:05.437Z,24.63
2022-11-20T14:04:38.829Z,23.67
2022-11-20T14:07:08.538Z,23.80
2022-11-20T14:09:38.209Z,22.77
2022-11-20T14:12:20.450Z,23.23
2022-11-20T14:14:53.594Z,23.57
2022-11-20T14:17:26.281Z,24.20
2022-11-20T14:19:56.048Z,22.77
2022-11-20T14:22:25.936Z,23.37
2022-11-20T14:25:08.586Z,25.80
2022-11-20T14:27:39.392Z,25.90
2022-11-20T14:30:14.512Z,25.67
2022-11-20T14:32:44.374Z,25.27
2022-11-20T14:35:20.659Z,26.37
2022-11-20T14:37:49.506Z,27.90
2022-11-20T14:40:31.212Z,26.07
2022-11-20T14:43:01.239Z,24.83
2022-11-20T14:45:29.907Z,25.03
2022-11-20T14:48:00.137Z,25.87
2022-11-20T14:50:30.258Z,26.43
2022-11-20T14:53:00.746Z,25.60
2022-11-20T14:55:33.346Z,24.97
2022-11-20T14:58:03.714Z,25.00
2022-11-20T15:00:33.804Z,24.93
2022-11-20T15:03:02.340Z,24.23
2022-11-20T15:05:49.690Z,24.53
2022-11-20T15:08:18.848Z,23.37
2022-11-20T15:10:53.520Z,24.43
2022-11-20T15:13:31.385Z,24.67
2022-11-20T15:16:02.177Z,24.10
2022-11-20T15:18:33.092Z,34.30
2022-11-20T15:21:04.411Z,34.43
2022-11-20T15:23:32.756Z,31.17
2022-11-20T15:26:02.562Z,27.87
2022-11-20T15:28:33.918Z,28.20
2022-11-20T15:31:04.084Z,26.50
2022-11-20T15:33:32.889Z,31.70
2022-11-20T15:36:01.565Z,30.60
2022-11-20T15:38:29.927Z,29.87
2022-11-20T15:40:58.875Z,29.17
2022-11-20T15:43:28.450Z,35.00
2022-11-20T15:46:01.988Z,33.73
2022-11-20T15:48:33.045Z,30.03
2022-11-20T15:51:05.779Z,27.57
2022-11-20T15:53:34.077Z,28.97
2022-11-20T15:56:02.526Z,28.70
2022-11-20T15:58:32.238Z,31.17
2022-11-20T16:01:00.765Z,31.70
2022-11-20T16:03:29.007Z,29.80
2022-11-20T16:05:57.328Z,33.60
2022-11-20T16:08:25.654Z,35.97
2022-11-20T16:10:53.925Z,32.07
2022-11-20T16:13:39.788Z,38.37
2022-11-20T16:16:13.916Z,35.17
2022-11-20T16:18:42.353Z,35.13
2022-11-20T16:21:14.330Z,29.53
2022-11-20T16:23:44.057Z,28.57
2022-11-20T16:26:13.129Z,35.70
2022-11-20T16:28:41.903Z,34.40
2022-11-20T16:31:12.758Z,31.27
2022-11-20T16:33:41.721Z,32.57
2022-11-20T16:36:14.637Z,33.13
2022-11-20T16:38:43.584Z,39.87
2022-11-20T16:41:14.668Z,31.17
2022-11-20T16:43:48.600Z,32.87
2022-11-20T16:46:19.319Z,29.83
2022-11-20T16:48:54.045Z,28.63
2022-11-20T16:51:23.288Z,31.63
2022-11-20T16:53:52.056Z,32.93
2022-11-20T16:56:22.028Z,33.87
2022-11-20T16:58:52.155Z,31.87
2022-11-20T17:01:23.332Z,47.70
2022-11-20T17:03:57.376Z,39.73
2022-11-20T17:06:27.954Z,37.70
2022-11-20T17:08:57.420Z,35.47
2022-11-20T17:11:26.709Z,33.57
2022-11-20T17:13:56.341Z,33.70
2022-11-20T17:16:26.748Z,33.10
2022-11-20T17:19:01.352Z,29.67
2022-11-20T17:21:31.835Z,30.33
2022-11-20T17:24:03.382Z,28.27
2022-11-20T17:26:32.021Z,26.53
2022-11-20T17:29:01.951Z,29.43
2022-11-20T17:31:34.070Z,25.40
2022-11-20T17:34:02.798Z,25.87
2022-11-20T17:36:31.866Z,26.33
2022-11-20T17:39:01.555Z,27.00
2022-11-20T17:41:31.188Z,26.50
2022-11-20T17:44:01.445Z,25.17
2022-11-20T17:46:33.976Z,27.10
2022-11-20T17:49:03.081Z,29.07
2022-11-20T17:51:33.358Z,31.77
2022-11-20T17:54:03.275Z,29.27
2022-11-20T17:56:50.645Z,38.93
2022-11-20T17:59:19.846Z,39.60
2022-11-20T18:01:49.683Z,33.17
2022-11-20T18:04:18.277Z,32.57
2022-11-20T18:06:46.938Z,32.87
2022-11-20T18:09:15.326Z,29.03
2022-11-20T18:11:45.583Z,27.47
2022-11-20T18:14:32.286Z,26.63
2022-11-20T18:17:03.999Z,27.90
2022-11-20T18:19:37.571Z,27.67
2022-11-20T18:22:09.045Z,26.03
2022-11-20T18:24:39.372Z,25.17
2022-11-20T18:27:09.525Z,25.73
2022-11-20T18:29:37.866Z,26.60
2022-11-20T18:32:07.587Z,26.83
2022-11-20T18:34:35.835Z,26.77
2022-11-20T18:37:04.626Z,27.53
2022-11-20T18:39:33.026Z,26.37
2022-11-20T18:42:18.966Z,27.23
2022-11-20T18:44:53.969Z,28.70
2022-11-20T18:47:27.907Z,30.70
2022-11-20T18:49:57.516Z,28.70
2022-11-20T18:52:27.423Z,28.90
2022-11-20T18:54:56.549Z,30.33
2022-11-20T18:57:26.829Z,35.13
2022-11-20T18:59:55.522Z,32.37
2022-11-20T19:02:25.128Z,30.63
2022-11-20T19:04:53.498Z,35.33
2022-11-20T19:07:22.508Z,45.10
2022-11-20T19:09:52.518Z,34.73
2022-11-20T19:12:24.090Z,41.07
2022-11-20T19:14:53.039Z,44.60
2022-11-20T19:17:21.403Z,38.23
2022-11-20T19:19:51.207Z,45.43
2022-11-20T19:22:19.769Z,48.20
2022-11-20T19:24:48.069Z,47.13
2022-11-20T19:27:16.378Z,44.27
2022-11-20T19:29:44.872Z,47.33
2022-11-20T19:32:13.186Z,49.03
2022-11-20T19:34:41.684Z,40.90
2022-11-20T19:37:11.291Z,36.10
2022-11-20T19:39:39.545Z,33.37
2022-11-20T19:42:07.847Z,33.93
2022-11-20T19:44:36.339Z,32.97
2022-11-20T19:47:08.956Z,31.77
2022-11-20T19:49:41.887Z,31.43
2022-11-20T19:52:11.526Z,32.73
2022-11-20T19:54:40.100Z,34.57
2022-11-20T19:57:08.406Z,35.13
2022-11-20T19:59:36.650Z,32.53
2022-11-20T20:02:05.112Z,29.60
2022-11-20T20:04:33.643Z,30.20
2022-11-20T20:07:03.987Z,30.70
2022-11-20T20:09:34.395Z,28.77
2022-11-20T20:12:02.704Z,31.37
2022-11-20T20:14:32.249Z,31.23
2022-11-20T20:17:00.516Z,29.97
2022-11-20T20:19:28.991Z,28.77
2022-11-20T20:21:57.308Z,26.43
2022-11-20T20:24:25.719Z,26.23
2022-11-20T20:26:58.101Z,26.17
2022-11-20T20:29:26.815Z,30.60
2022-11-20T20:31:55.196Z,33.30
2022-11-20T20:34:23.898Z,37.93
2022-11-20T20:36:52.225Z,36.90
2022-11-20T20:39:21.380Z,34.63
2022-11-20T20:41:50.118Z,38.50
2022-11-20T20:44:37.025Z,52.47
2022-11-20T20:47:05.358Z,55.13
2022-11-20T20:49:35.186Z,46.97
2022-11-20T20:52:03.474Z,43.00
2022-11-20T20:54:34.546Z,41.13
2022-11-20T20:57:03.135Z,37.90
2022-11-20T20:59:32.734Z,38.87
2022-11-20T21:02:01.107Z,33.13
2022-11-20T21:04:29.475Z,35.50
2022-11-20T21:06:57.716Z,33.30
2022-11-20T21:09:26.105Z,30.50
2022-11-20T21:11:55.809Z,30.27
2022-11-20T21:14:24.524Z,30.10
2022-11-20T21:16:54.328Z,35.03
2022-11-20T21:19:22.735Z,35.93
2022-11-20T21:21:59.470Z,33.33
2022-11-20T21:24:28.367Z,35.00
2022-11-20T21:26:57.505Z,36.37
2022-11-20T21:29:29.379Z,33.57
2022-11-20T21:31:59.745Z,30.27
2022-11-20T21:34:28.341Z,29.03
2022-11-20T21:36:56.667Z,29.73
2022-11-20T21:39:24.998Z,31.37
2022-11-20T21:41:53.279Z,30.33
2022-11-20T21:44:30.937Z,30.10
2022-11-20T21:47:01.078Z,26.73
2022-11-20T21:49:29.434Z,26.60
2022-11-20T21:51:57.727Z,27.00
2022-11-20T21:54:26.581Z,27.00
2022-11-20T21:56:55.118Z,28.23
2022-11-20T21:59:23.652Z,27.80
2022-11-20T22:01:52.045Z,27.87
2022-11-20T22:04:23.115Z,28.37
2022-11-20T22:06:51.692Z,29.07
2022-11-20T22:09:20.085Z,28.50
2022-11-20T22:11:48.664Z,30.63
2022-11-20T22:14:23.492Z,30.17
2022-11-20T22:16:53.987Z,34.47
2022-11-20T22:19:24.581Z,30.50
2022-11-20T22:21:53.247Z,32.57
2022-11-20T22:24:23.967Z,30.07
2022-11-20T22:26:52.559Z,35.50
2022-11-20T22:29:22.136Z,31.90
2022-11-20T22:31:52.907Z,35.07
2022-11-20T22:34:21.577Z,37.50
2022-11-20T22:36:51.297Z,41.10
2022-11-20T22:39:22.767Z,41.57
2022-11-20T22:41:51.157Z,41.13
2022-11-20T22:44:19.438Z,38.13
2022-11-20T22:46:47.714Z,37.33
2022-11-20T22:49:16.017Z,37.43
2022-11-20T22:51:44.475Z,35.23
2022-11-20T22:54:14.699Z,35.57
2022-11-20T22:56:43.298Z,33.70
2022-11-20T22:59:11.783Z,42.03
2022-11-20T23:01:40.118Z,36.67
2022-11-20T23:04:11.669Z,44.43
2022-11-20T23:06:40.208Z,39.00
2022-11-20T23:09:09.887Z,36.67
2022-11-20T23:11:39.594Z,37.37
2022-11-20T23:14:09.526Z,33.33
2022-11-20T23:16:37.957Z,35.03
2022-11-20T23:19:08.209Z,32.57
2022-11-20T23:21:37.996Z,30.30
2022-11-20T23:24:07.433Z,38.87
2022-11-20T23:26:38.062Z,34.87
2022-11-20T23:29:08.246Z,32.10
2022-11-20T23:31:37.278Z,33.07
2022-11-20T23:34:05.751Z,47.63
2022-11-20T23:36:34.381Z,39.90
2022-11-20T23:39:02.627Z,34.43
2022-11-20T23:41:30.918Z,34.70
2022-11-20T23:43:59.236Z,33.10
2022-11-20T23:46:28.826Z,35.93
2022-11-20T23:48:57.268Z,33.27
2022-11-20T23:51:25.758Z,40.03
2022-11-20T23:53:54.037Z,36.83
2022-11-20T23:56:22.354Z,38.37
2022-11-20T23:58:50.736Z,43.57
